Air Navigation Services of Czech Republic
Airport: LKLN Updated:  21.11.2019 18:25:25  UTC
 METAR LKLN 21.11. 18:30 ...
METAR LKLN 211830Z AUTO 21006KT 9999 -RA ///////// 06/06 Q1009=